Crown Princess — ZCDM6 — position and weather

sailwx.info

Track history (hours):
 
Tides and Currents Weather Stations Pressure Air Temp Water Temp Dewpoint Dewpoint Depression Visibility Wind Speed Wind Dir Waves Ship Positions

Crown Princess

Last reported at 2015-Aug-02 13:05 UTC. Time now 2015-Aug-04 19:55 UTC.
Position N 49°53' W 128°02'.

Type: Ship. MMSI: 310500000.

Date/timePositionNaut miles runAvg speedWind from/ knotsBaromVisibWave heightAir tempDewpointWater temp
2015-Aug-02 13:05N 49°53' W 128°02'5120.4
2015-Aug-02 10:33N 49°21' W 127°00'2020.3
2015-Aug-02 09:33N 49°08' W 126°36'2020.2
2015-Aug-02 08:33N 48°57' W 126°11'2020.4
2015-Aug-02 07:33N 48°45' W 125°45'2221.6
2015-Aug-02 06:33N 48°32' W 125°19'2221.7
2015-Aug-02 05:33N 48°31' W 124°46'2221.8
2015-Aug-02 04:33N 48°23' W 124°16'2221.3
2015-Aug-02 03:32N 48°16' W 123°44'1717.1
2015-Aug-02 02:33N 48°10' W 123°21'2020.1
2015-Aug-02 01:33N 48°11' W 122°51'1817.9
2015-Aug-02 00:33N 47°58' W 122°34'1818.3
2015-Aug-01 23:33N 47°40' W 122°27'4 3.5
2015-Aug-01 22:30N 47°38' W 122°23'0 0.0
2015-Aug-01 21:29N 47°38' W 122°23'0 0.0
2015-Aug-01 20:32N 47°38' W 122°23'0 0.0
2015-Aug-01 19:28N 47°38' W 122°23'0 0.0
2015-Aug-01 18:31N 47°38' W 122°23'0 0.0
2015-Aug-01 17:33N 47°38' W 122°23'0 0.0
2015-Aug-01 16:33N 47°38' W 122°23'0 0.0
2015-Aug-01 15:33N 47°38' W 122°23'0 0.0
2015-Aug-01 14:32N 47°38' W 122°23'0 0.0
2015-Aug-01 13:33N 47°38' W 122°23'3 3.4
2015-Aug-01 12:33N 47°38' W 122°28'1313.0
2015-Aug-01 11:33N 47°52' W 122°29'1413.5
2015-Aug-01 10:31N 48°04' W 122°39'1414.7
2015-Aug-01 09:33N 48°11' W 122°57'1716.8
2015-Aug-01 08:33N 48°10' W 123°22'1111.0
2015-Aug-01 07:33N 48°21' W 123°26'4 0.7
2015-Aug-01 01:33N 48°25' W 123°24'1111.4
2015-Aug-01 00:33N 48°14' W 123°30'1919.2
2015-Jul-31 23:33N 48°15' W 123°59'2020.6
2015-Jul-31 22:33N 48°23' W 124°27'2020.4
2015-Jul-31 21:33N 48°28' W 124°57'2020.3
2015-Jul-31 20:33N 48°35' W 125°26'2121.3
2015-Jul-31 19:33N 48°45' W 125°54'2221.5
2015-Jul-31 18:33N 48°58' W 126°20'2121.4
2015-Jul-31 17:33N 49°11' W 126°46'2222.1
2015-Jul-31 16:33N 49°25' W 127°13'59315.0
2015-Jul-30 01:08N 58°07' W 135°09'1220.2
2015-Jul-30 00:33N 58°13' W 135°28'1616.1
2015-Jul-29 23:33N 58°20' W 135°56'1312.6
2015-Jul-29 22:33N 58°32' W 136°03'1615.6
2015-Jul-29 21:33N 58°45' W 136°19'4 0.6
2015-Jul-29 15:33N 58°43' W 136°14'1414.4
2015-Jul-29 14:34N 58°30' W 136°03'1111.1
2015-Jul-29 13:33N 58°19' W 135°55'1414.2
2015-Jul-29 12:33N 58°15' W 135°29'1514.7
2015-Jul-29 11:34N 58°09' W 135°04'1211.8
2015-Jul-29 10:33N 58°21' W 135°01'1312.7
2015-Jul-29 09:33N 58°34' W 135°05'1612.4
2015-Jul-29 08:15N 58°49' W 135°11'40 1.1
2015-Jul-27 20:08N 58°18' W 134°24'0 0.1
2015-Jul-27 19:32N 58°17' W 134°24'0 0.0
2015-Jul-27 18:34N 58°18' W 134°24'5 5.2
2015-Jul-27 17:33N 58°14' W 134°17'59218.9
2015-Jul-26 10:11N 49°21' W 127°00'1422.0
2015-Jul-26 09:33N 49°12' W 126°43'2322.8
2015-Jul-26 08:33N 48°59' W 126°15'2323.0
2015-Jul-26 07:34N 48°46' W 125°46'2322.7
2015-Jul-26 06:34N 48°32' W 125°19'2222.2
2015-Jul-26 05:34N 48°31' W 124°45'2322.6
2015-Jul-26 04:33N 48°22' W 124°14'2621.4
2015-Jul-26 03:21N 48°16' W 123°36'1215.7
2015-Jul-26 02:33N 48°09' W 123°20'2719.5
2015-Jul-26 01:09N 48°07' W 122°39'1321.7
2015-Jul-26 00:33N 47°55' W 122°30'1717.4
2015-Jul-25 23:33N 47°38' W 122°26'2 2.3
2015-Jul-25 22:31N 47°38' W 122°23'0 0.0
2015-Jul-25 21:31N 47°38' W 122°23'0 0.0
2015-Jul-25 20:33N 47°38' W 122°23'0 0.0
2015-Jul-25 19:33N 47°38' W 122°23'0 0.0
2015-Jul-25 18:32N 47°38' W 122°23'0 0.0
2015-Jul-25 17:32N 47°38' W 122°23'0 0.0
2015-Jul-25 16:32N 47°38' W 122°23'0 0.0
2015-Jul-25 15:31N 47°38' W 122°23'0 0.0
2015-Jul-25 14:31N 47°38' W 122°23'0 0.0
2015-Jul-25 13:33N 47°38' W 122°23'3 2.9
2015-Jul-25 12:33N 47°38' W 122°27'1312.8
2015-Jul-25 11:34N 47°51' W 122°28'1413.9
2015-Jul-25 10:33N 48°03' W 122°39'1312.7
2015-Jul-25 09:31N 48°11' W 122°54'1515.4
2015-Jul-25 08:32N 48°11' W 123°17'1111.0
2015-Jul-25 07:34N 48°19' W 123°27'6 1.1
2015-Jul-25 01:33N 48°25' W 123°24'1313.3
2015-Jul-25 00:33N 48°13' W 123°35'1919.0
2015-Jul-24 23:33N 48°16' W 124°03'1818.4
2015-Jul-24 22:33N 48°24' W 124°28'1717.2
2015-Jul-24 21:33N 48°29' W 124°53'1918.6
2015-Jul-24 20:33N 48°32' W 125°20'1919.4
2015-Jul-24 19:33N 48°42' W 125°46'2121.1
2015-Jul-24 18:33N 48°54' W 126°12'2121.1
2015-Jul-24 17:33N 49°07' W 126°37'2322.0
2015-Jul-24 16:31N 49°21' W 127°05'  
Track history (hours):
 
Tides and Currents Weather Stations Pressure Air Temp Water Temp Dewpoint Dewpoint Depression Visibility Wind Speed Wind Dir Waves Ship Positions

Crown Princess

Last reported at 2015-Aug-02 13:05 UTC. Time now 2015-Aug-04 19:55 UTC.
Position N 49°53' W 128°02'.

Type: Ship. MMSI: 310500000.

Date/timePositionNaut miles runAvg speedWind from/ knotsBaromVisibWave heightAir tempDewpointWater temp
2015-Aug-02 13:05N 49°53' W 128°02'5120.4
2015-Aug-02 10:33N 49°21' W 127°00'2020.3
2015-Aug-02 09:33N 49°08' W 126°36'2020.2
2015-Aug-02 08:33N 48°57' W 126°11'2020.4
2015-Aug-02 07:33N 48°45' W 125°45'2221.6
2015-Aug-02 06:33N 48°32' W 125°19'2221.7
2015-Aug-02 05:33N 48°31' W 124°46'2221.8
2015-Aug-02 04:33N 48°23' W 124°16'2221.3
2015-Aug-02 03:32N 48°16' W 123°44'1717.1
2015-Aug-02 02:33N 48°10' W 123°21'2020.1
2015-Aug-02 01:33N 48°11' W 122°51'1817.9
2015-Aug-02 00:33N 47°58' W 122°34'1818.3
2015-Aug-01 23:33N 47°40' W 122°27'4 3.5
2015-Aug-01 22:30N 47°38' W 122°23'0 0.0
2015-Aug-01 21:29N 47°38' W 122°23'0 0.0
2015-Aug-01 20:32N 47°38' W 122°23'0 0.0
2015-Aug-01 19:28N 47°38' W 122°23'0 0.0
2015-Aug-01 18:31N 47°38' W 122°23'0 0.0
2015-Aug-01 17:33N 47°38' W 122°23'0 0.0
2015-Aug-01 16:33N 47°38' W 122°23'0 0.0
2015-Aug-01 15:33N 47°38' W 122°23'0 0.0
2015-Aug-01 14:32N 47°38' W 122°23'0 0.0
2015-Aug-01 13:33N 47°38' W 122°23'3 3.4
2015-Aug-01 12:33N 47°38' W 122°28'1313.0
2015-Aug-01 11:33N 47°52' W 122°29'1413.5
2015-Aug-01 10:31N 48°04' W 122°39'1414.7
2015-Aug-01 09:33N 48°11' W 122°57'1716.8
2015-Aug-01 08:33N 48°10' W 123°22'1111.0
2015-Aug-01 07:33N 48°21' W 123°26'4 0.7
2015-Aug-01 01:33N 48°25' W 123°24'1111.4
2015-Aug-01 00:33N 48°14' W 123°30'1919.2
2015-Jul-31 23:33N 48°15' W 123°59'2020.6
2015-Jul-31 22:33N 48°23' W 124°27'2020.4
2015-Jul-31 21:33N 48°28' W 124°57'2020.3
2015-Jul-31 20:33N 48°35' W 125°26'2121.3
2015-Jul-31 19:33N 48°45' W 125°54'2221.5
2015-Jul-31 18:33N 48°58' W 126°20'2121.4
2015-Jul-31 17:33N 49°11' W 126°46'2222.1
2015-Jul-31 16:33N 49°25' W 127°13'59315.0
2015-Jul-30 01:08N 58°07' W 135°09'1220.2
2015-Jul-30 00:33N 58°13' W 135°28'1616.1
2015-Jul-29 23:33N 58°20' W 135°56'1312.6
2015-Jul-29 22:33N 58°32' W 136°03'1615.6
2015-Jul-29 21:33N 58°45' W 136°19'4 0.6
2015-Jul-29 15:33N 58°43' W 136°14'1414.4
2015-Jul-29 14:34N 58°30' W 136°03'1111.1
2015-Jul-29 13:33N 58°19' W 135°55'1414.2
2015-Jul-29 12:33N 58°15' W 135°29'1514.7
2015-Jul-29 11:34N 58°09' W 135°04'1211.8
2015-Jul-29 10:33N 58°21' W 135°01'1312.7
2015-Jul-29 09:33N 58°34' W 135°05'1612.4
2015-Jul-29 08:15N 58°49' W 135°11'40 1.1
2015-Jul-27 20:08N 58°18' W 134°24'0 0.1
2015-Jul-27 19:32N 58°17' W 134°24'0 0.0
2015-Jul-27 18:34N 58°18' W 134°24'5 5.2
2015-Jul-27 17:33N 58°14' W 134°17'59218.9
2015-Jul-26 10:11N 49°21' W 127°00'1422.0
2015-Jul-26 09:33N 49°12' W 126°43'2322.8
2015-Jul-26 08:33N 48°59' W 126°15'2323.0
2015-Jul-26 07:34N 48°46' W 125°46'2322.7
2015-Jul-26 06:34N 48°32' W 125°19'2222.2
2015-Jul-26 05:34N 48°31' W 124°45'2322.6
2015-Jul-26 04:33N 48°22' W 124°14'2621.4
2015-Jul-26 03:21N 48°16' W 123°36'1215.7
2015-Jul-26 02:33N 48°09' W 123°20'2719.5
2015-Jul-26 01:09N 48°07' W 122°39'1321.7
2015-Jul-26 00:33N 47°55' W 122°30'1717.4
2015-Jul-25 23:33N 47°38' W 122°26'2 2.3
2015-Jul-25 22:31N 47°38' W 122°23'0 0.0
2015-Jul-25 21:31N 47°38' W 122°23'0 0.0
2015-Jul-25 20:33N 47°38' W 122°23'0 0.0
2015-Jul-25 19:33N 47°38' W 122°23'0 0.0
2015-Jul-25 18:32N 47°38' W 122°23'0 0.0
2015-Jul-25 17:32N 47°38' W 122°23'0 0.0
2015-Jul-25 16:32N 47°38' W 122°23'0 0.0
2015-Jul-25 15:31N 47°38' W 122°23'0 0.0
2015-Jul-25 14:31N 47°38' W 122°23'0 0.0
2015-Jul-25 13:33N 47°38' W 122°23'3 2.9
2015-Jul-25 12:33N 47°38' W 122°27'1312.8
2015-Jul-25 11:34N 47°51' W 122°28'1413.9
2015-Jul-25 10:33N 48°03' W 122°39'1312.7
2015-Jul-25 09:31N 48°11' W 122°54'1515.4
2015-Jul-25 08:32N 48°11' W 123°17'1111.0
2015-Jul-25 07:34N 48°19' W 123°27'6 1.1
2015-Jul-25 01:33N 48°25' W 123°24'1313.3
2015-Jul-25 00:33N 48°13' W 123°35'1919.0
2015-Jul-24 23:33N 48°16' W 124°03'1818.4
2015-Jul-24 22:33N 48°24' W 124°28'1717.2
2015-Jul-24 21:33N 48°29' W 124°53'1918.6
2015-Jul-24 20:33N 48°32' W 125°20'1919.4
2015-Jul-24 19:33N 48°42' W 125°46'2121.1
2015-Jul-24 18:33N 48°54' W 126°12'2121.1
2015-Jul-24 17:33N 49°07' W 126°37'2322.0
2015-Jul-24 16:31N 49°21' W 127°05'  

Dump ship's entire track history